Latest Weather Observations for Casey*

IDT60801

Issued at 5:32 am EDT Sunday 2 October 2016 (issued every 30 minutes, with the page automatically refreshed every 10 minutes)

About weather observations | Map of weather stations | Latest weather observations for ANT | Other Formats
Station Details ID: 300017 Name: CASEY Lat: -66.28 Lon: 110.52 Height: 40.0 m
Data from the previous 72 hours. | See also: Recent months at Casey*
Date/Time
EDT
Temp
°C
App
Temp
°C
Dew
Point
°C
Rel
Hum
%
Delta-T
°C
Wind Press
QNH
hPa
Press
MSL
hPa
Rain since
9am
mm
Dir  Spd
km/h
Gust
km/h
Spd
kts
Gust
kts
02/05:30am -5.6 -23.8 -8.8 78 - E 80 109 43 59 978.8 - -
02/05:19am -4.4 -20.9 -7.5 79 - E 72 100 39 54 979.9 - -
02/05:11am -4.0 -25.0 -8.5 71 - E 95 128 51 69 979.5 - -
02/05:10am -3.3 -17.9 -5.1 87 - E 63 128 34 69 979.2 - -
02/05:09am -4.5 -15.7 -9.1 70 - E 43 67 23 36 980.6 - -
02/05:00am -5.8 -24.4 -9.2 77 - E 82 111 44 60 980.0 980.5 -
02/04:30am -5.6 -24.7 -9.1 76 - E 85 111 46 60 979.7 - -
02/04:00am -5.6 -24.4 -9.3 75 - E 83 113 45 61 979.5 - -
02/03:34am -5.6 -24.2 -9.1 76 - E 82 109 44 59 980.2 - -
02/03:30am -5.7 -24.3 -9.2 76 - E 82 95 44 51 980.6 - -
02/03:14am -4.9 -23.1 -9.2 72 - E 80 98 43 53 981.4 - -
02/03:10am -5.5 -25.0 -9.2 75 - E 87 98 47 53 980.7 - -
02/03:00am -5.8 -20.0 -8.7 80 - E 59 87 32 47 982.5 - -
02/01:54am -5.7 -18.5 -8.9 78 - E 52 87 28 47 982.7 - -
02/01:34am -5.3 -14.4 -9.5 72 - ENE 32 61 17 33 984.2 - -
02/01:30am -5.7 -23.1 -8.7 79 - E 76 98 41 53 983.2 - -
02/01:25am -6.1 -22.7 -8.8 81 - E 72 98 39 53 982.0 - -
02/01:17am -6.4 -21.0 -9.4 79 - E 61 80 33 43 982.4 - -
02/01:15am -6.2 -20.1 -9.7 76 - E 57 70 31 38 982.4 - -
02/01:00am -6.0 -23.9 -9.9 74 - E 78 104 42 56 981.9 982.4 -
02/12:57am -6.1 -24.4 -10.0 74 - E 80 104 43 56 982.3 - -
02/12:54am -6.2 -20.1 -9.7 76 - E 57 83 31 45 983.8 - -
02/12:52am -6.2 -19.1 -10.1 74 - E 52 63 28 34 984.3 - -
02/12:30am -4.5 -12.2 -11.1 60 - SSW 24 35 13 19 984.7 - -
02/12:14am -4.4 -13.3 -11.6 57 - S 30 48 16 26 984.6 - -
02/12:00am -4.5 -10.9 -11.3 59 - SSW 17 30 9 16 984.9 - -
 
Date/Time
EDT
Temp
°C
App
Temp
°C
Dew
Point
°C
Rel
Hum
%
Delta-T
°C
Wind Press
QNH
hPa
Press
MSL
hPa
Rain since
9am
mm
Dir  Spd
km/h
Gust
km/h
Spd
kts
Gust
kts
01/11:30pm -5.6 -14.9 -11.7 62 - S 32 43 17 23 985.1 - -
01/11:00pm -6.6 -13.9 -11.5 68 - SW 22 28 12 15 986.1 - -
01/10:30pm -4.0 -13.4 -10.8 59 - SSE 33 54 18 29 985.8 - -
01/10:25pm -3.8 -13.2 -10.8 58 - SSE 33 54 18 29 985.8 - -
01/10:00pm -6.6 -13.5 -11.1 70 - SSW 20 28 11 15 986.2 986.6 -
01/09:30pm -3.9 -8.6 -9.7 64 - SW 9 15 5 8 986.5 - -
01/09:00pm -4.4 -11.3 -11.0 60 - ESE 20 33 11 18 986.7 - -
01/08:30pm -5.3 -12.6 -11.4 62 - SSW 22 33 12 18 986.9 - -
01/08:00pm -5.7 -13.8 -11.0 66 - SSW 26 33 14 18 987.2 - -
01/07:42pm -4.1 -12.9 -10.5 61 - SSE 30 50 16 27 987.6 - -
01/07:30pm -5.6 -14.8 -10.5 68 - S 32 39 17 21 987.5 - -
01/07:24pm -4.5 -14.2 -10.5 63 - SSE 35 43 19 23 987.7 - -
01/07:19pm -4.1 -14.3 -11.3 57 - ESE 37 56 20 30 987.3 - -
01/07:18pm -3.9 -14.4 -10.9 58 - ESE 39 56 21 30 987.3 - -
01/07:02pm -4.1 -12.5 -10.5 61 - E 28 56 15 30 987.7 - -
01/07:00pm -3.9 -11.5 -10.3 61 - ENE 24 35 13 19 988.1 988.5 -
01/06:56pm -3.6 -9.9 -10.2 60 - ENE 17 32 9 17 988.0 - -
01/06:50pm -3.8 -16.0 -9.8 63 - E 48 67 26 36 987.5 - -
01/06:43pm -3.7 -15.4 -9.1 66 - E 46 57 25 31 987.2 - -
01/06:42pm -4.2 -14.6 -9.8 65 - SE 39 57 21 31 987.6 - -
01/06:39pm -4.7 -15.9 -9.9 67 - SE 43 54 23 29 987.8 - -
01/06:30pm -4.3 -18.6 -10.1 64 - E 59 72 32 39 987.0 - -
01/06:00pm -4.6 -16.8 -10.0 66 - E 48 70 26 38 987.5 - -
01/05:58pm -4.6 -16.4 -10.0 66 - E 46 70 25 38 987.6 - -
01/05:50pm -4.2 -13.5 -10.2 63 - E 33 52 18 28 988.4 - -
01/05:49pm -4.2 -13.3 -10.2 63 - E 32 43 17 23 988.4 - -
01/05:30pm -3.6 -9.2 -10.6 58 - S 13 24 7 13 988.9 - -
01/05:00pm -3.1 -10.8 -11.1 54 - S 24 35 13 19 989.0 - -
01/04:30pm -2.7 -10.4 -10.9 53 - ESE 24 35 13 19 989.1 - -
01/04:00pm -3.8 -9.7 -10.4 60 - S 15 24 8 13 989.4 989.8 -
01/03:30pm -3.0 -10.7 -10.5 56 - SSE 24 32 13 17 989.4 - -
01/03:00pm -3.5 -10.4 -10.5 58 - SSE 20 24 11 13 989.8 - -
01/02:30pm -5.4 -11.4 -10.7 66 - S 15 22 8 12 990.3 - -
01/02:00pm -5.1 -13.2 -11.2 62 - S 26 37 14 20 990.4 - -
01/01:30pm -7.0 -14.4 -12.3 66 - SW 22 28 12 15 990.6 - -
01/01:00pm -7.3 -15.8 -12.2 68 - SSE 28 43 15 23 991.0 991.4 -
01/12:30pm -7.1 -14.5 -12.2 67 - S 22 32 12 17 991.2 - -
01/12:00pm -8.5 -15.3 -12.6 72 - S 19 24 10 13 991.6 - -
01/11:30am -9.3 -17.5 -13.6 71 - SSE 26 33 14 18 991.7 - -
01/11:00am -9.7 -17.6 -13.9 71 - S 24 30 13 16 992.1 - -
01/10:30am -10.2 -16.8 -14.3 72 - SSE 17 22 9 12 992.5 - -
01/10:00am -10.0 -16.6 -14.6 69 - S 17 20 9 11 992.7 993.1 -
01/09:30am -11.5 -18.1 -15.5 72 - S 17 20 9 11 992.9 - -
01/09:00am -12.3 -19.0 -16.1 73 - SSE 17 20 9 11 993.1 - -
01/08:30am -9.6 -14.3 -15.7 61 - SE 7 13 4 7 993.3 - -
01/08:00am -8.7 -12.8 -13.7 67 - NE 4 6 2 3 993.3 - -
01/07:30am -9.0 -13.6 -13.6 69 - NNE 7 11 4 6 993.4 - -
01/07:00am -9.2 -14.6 -14.2 67 - NNE 11 15 6 8 993.5 993.9 -
01/06:30am -8.4 -13.1 -14.4 62 - ENE 7 13 4 7 993.5 - -
01/06:00am -8.8 -14.6 -14.7 62 - ENE 13 24 7 13 993.6 - -
01/05:30am -8.3 -12.8 -14.3 62 - E 6 13 3 7 993.6 - -
01/05:00am -8.2 -13.5 -11.8 75 - N 11 13 6 7 993.6 - -
01/04:30am -8.4 -13.7 -11.9 76 - NNE 11 15 6 8 993.7 - -
01/04:00am -7.9 -13.5 -11.4 76 - NNE 13 13 7 7 993.9 994.4 -
01/03:30am -8.0 -13.2 -11.1 78 - NE 11 15 6 8 994.1 - -
01/03:00am -7.5 -13.1 -11.0 76 - ENE 13 19 7 10 994.2 - -
01/02:30am -7.1 -11.6 -12.4 66 - S 7 13 4 7 994.1 - -
01/02:00am -5.8 -9.4 -12.5 59 - N 2 6 1 3 994.1 - -
01/01:30am -5.5 -12.3 -12.4 58 - ENE 19 20 10 11 994.0 - -
01/01:00am -5.1 -10.0 -12.5 56 - SSW 9 15 5 8 994.1 994.6 -
01/12:30am -4.8 -11.2 -12.4 55 - NE 17 35 9 19 994.0 - -
01/12:00am -5.8 -11.1 -12.9 57 - ENE 11 20 6 11 993.9 - -
 
Date/Time
EDT
Temp
°C
App
Temp
°C
Dew
Point
°C
Rel
Hum
%
Delta-T
°C
Wind Press
QNH
hPa
Press
MSL
hPa
Rain since
9am
mm
Dir  Spd
km/h
Gust
km/h
Spd
kts
Gust
kts
30/11:30pm -6.9 -12.2 -12.7 63 - E 11 20 6 11 993.8 - -
30/11:00pm -7.3 -11.9 -13.5 61 - SSE 7 15 4 8 993.7 - -
30/10:30pm -8.4 -13.8 -14.2 63 - ESE 11 19 6 10 993.7 - -
30/10:00pm -7.7 -13.9 -14.3 59 - ESE 15 20 8 11 993.6 994.1 -
30/09:30pm -8.2 -12.9 -14.6 60 - S 7 11 4 6 993.5 - -
30/09:00pm -6.8 -11.9 -14.5 54 - ENE 9 15 5 8 993.4 - -
30/08:30pm -6.1 -11.9 -13.9 54 - NE 13 19 7 10 993.2 - -
30/08:00pm -5.9 -11.2 -13.0 57 - NE 11 17 6 9 993.1 - -
30/07:30pm -5.6 -8.8 -11.5 63 - CALM 0 0 0 0 993.1 - -
30/07:00pm -6.0 -11.6 -10.9 68 - NE 13 17 7 9 992.8 993.3 -
30/06:30pm -4.4 -9.4 -13.0 51 - N 9 13 5 7 992.3 - -
30/06:00pm -4.6 -11.1 -13.4 50 - NE 17 22 9 12 992.2 - -
30/05:30pm -4.1 -9.0 -12.0 54 - WNW 9 15 5 8 991.9 - -
30/05:00pm -4.5 -9.0 -11.9 56 - NNW 7 9 4 5 991.7 - -
30/04:30pm -4.1 -7.4 -13.7 47 - CALM 0 6 0 3 991.5 - -
30/04:00pm -3.9 -9.6 -12.3 52 - NE 13 17 7 9 991.4 991.9 -
30/03:30pm -4.7 -11.2 -12.6 54 - ENE 17 20 9 11 991.3 - -
30/03:00pm -5.1 -14.4 -12.9 54 - E 32 39 17 21 990.7 - -
30/02:35pm -4.3 -13.7 -13.6 48 - E 32 37 17 20 990.8 - -
30/02:30pm -3.8 -8.4 -13.4 47 - ESE 7 13 4 7 991.0 - -
30/02:00pm -3.0 -6.2 -12.4 48 - CALM 0 0 0 0 990.6 - -
30/01:30pm -4.0 -7.3 -13.6 47 - CALM 0 0 0 0 990.5 - -
30/01:00pm -4.5 -9.1 -13.1 51 - ESE 7 9 4 5 990.3 990.8 -
30/12:30pm -6.7 -11.6 -12.2 65 - S 9 13 5 7 990.1 - -
30/12:00pm -6.5 -11.8 -12.8 61 - S 11 13 6 7 989.8 - -
30/11:30am -6.5 -12.2 -12.4 63 - SSE 13 17 7 9 989.6 - -
30/11:00am -6.5 -12.9 -12.2 64 - S 17 26 9 14 989.3 - -
30/10:30am -6.7 -13.1 -11.4 69 - SW 17 20 9 11 989.1 - -
30/10:00am -5.6 -12.1 -13.4 54 - SE 17 20 9 11 988.8 989.3 -
30/09:30am -5.6 -11.3 -13.4 54 - WSW 13 19 7 10 988.5 - -
30/09:00am -5.5 -12.0 -13.3 54 - S 17 32 9 17 988.0 - -
30/08:30am -6.4 -13.2 -12.1 64 - S 19 24 10 13 987.8 - -
30/08:24am -6.5 -15.0 -11.8 66 - SSE 28 39 15 21 987.5 - -
30/08:12am -6.5 -19.2 -11.6 67 - E 50 69 27 37 986.5 - -
30/08:00am -6.5 -19.9 -11.6 67 - E 54 67 29 36 986.2 - -
30/07:30am -6.4 -20.8 -11.5 67 - E 59 70 32 38 985.3 - -
30/07:00am -6.3 -20.1 -11.0 69 - E 56 65 30 35 984.8 985.3 -
30/06:30am -6.6 -21.3 -10.3 75 - E 61 76 33 41 984.2 - -
30/06:00am -6.7 -23.4 -9.9 78 - E 72 85 39 46 983.5 - -
30/05:35am -6.7 -22.9 -10.2 76 - E 69 87 37 47 983.0 - -
30/05:30am -6.7 -22.9 -10.4 75 - E 69 83 37 45 982.9 - -
30/05:00am -6.8 -24.0 -10.5 75 - E 74 87 40 47 - - -
30/04:30am -6.6 -23.4 -10.3 75 - E 72 87 39 47 982.3 - -
30/04:00am -6.8 -23.9 -10.1 77 - E 74 87 40 47 981.9 982.5 -
30/03:33am -6.7 -24.2 -9.9 78 - E 76 95 41 51 981.8 - -
30/03:30am -6.8 -24.7 -9.7 80 - E 78 95 42 51 981.4 - -
30/03:14am -7.0 -25.2 -9.5 82 - E 80 98 43 53 980.9 - -
30/03:00am -7.1 -25.7 -9.8 81 - E 82 95 44 51 981.1 - -
30/02:46am -7.0 -25.2 -9.5 82 - E 80 98 43 53 980.8 - -
30/02:30am -7.0 -25.2 -9.7 81 - E 80 91 43 49 981.1 - -
30/02:00am -6.9 -24.8 -9.8 80 - ENE 78 96 42 52 981.0 - -
30/01:59am -6.9 -24.8 -9.9 79 - ENE 78 96 42 52 981.1 - -
30/01:30am -7.0 -26.6 -9.9 80 - ENE 87 95 47 51 980.1 - -
30/01:28am -6.8 -20.7 -10.1 77 - E 57 78 31 42 981.0 - -
30/01:06am -6.9 -25.1 -9.4 82 - E 80 98 43 53 979.8 - -
30/01:00am -6.9 -25.1 -9.6 81 - E 80 95 43 51 979.8 980.4 -
30/12:30am -6.8 -24.3 -9.5 81 - E 76 100 41 54 979.7 - -
30/12:00am -7.0 -25.6 -9.4 83 - E 82 104 44 56 979.5 - -
 
Date/Time
EDT
Temp
°C
App
Temp
°C
Dew
Point
°C
Rel
Hum
%
Delta-T
°C
Wind Press
QNH
hPa
Press
MSL
hPa
Rain since
9am
mm
Dir  Spd
km/h
Gust
km/h
Spd
kts
Gust
kts
29/11:30pm -6.6 -24.8 -9.5 80 - E 80 111 43 60 979.3 - -
29/11:00pm -6.9 -25.7 -9.6 81 - E 83 107 45 58 979.3 - -
29/10:32pm -7.1 -25.9 -9.3 84 - E 83 102 45 55 979.3 - -
29/10:30pm -7.2 -26.7 -9.4 84 - E 87 102 47 55 979.2 - -
29/10:12pm -7.4 -26.0 -9.5 85 - E 82 100 44 54 978.7 - -
29/10:00pm -7.4 -25.6 -9.6 84 - E 80 95 43 51 979.1 979.7 -
29/09:43pm -7.5 -26.3 -9.7 84 - E 83 102 45 55 979.0 - -
29/09:30pm -7.5 -26.1 -9.9 83 - E 82 96 44 52 978.9 - -
29/09:03pm -7.6 -26.2 -10.1 82 - E 82 100 44 54 978.9 - -
29/09:00pm -7.6 -25.9 -10.1 82 - E 80 95 43 51 979.2 - -
29/08:37pm -7.5 -25.8 -10.0 82 - E 80 100 43 54 979.3 - -
29/08:30pm -7.7 -26.0 -10.2 82 - E 80 95 43 51 979.3 - -
29/08:06pm -7.7 -25.6 -10.2 82 - E 78 98 42 53 979.5 - -
29/08:00pm -7.5 -25.4 -10.2 81 - E 78 95 42 51 978.9 - -
29/07:59pm -7.6 -25.1 -10.1 82 - E 76 95 41 51 979.0 - -
29/07:30pm -7.4 -24.9 -9.9 82 - E 76 89 41 48 979.0 - -
29/07:00pm -7.0 -24.1 -10.0 79 - E 74 107 40 58 978.8 979.4 -
29/06:32pm -7.1 -24.2 -9.8 81 - E 74 95 40 51 978.5 - -
29/06:30pm -6.9 -24.0 -9.9 79 - E 74 89 40 48 978.7 - -
29/06:02pm -7.2 -24.3 -9.7 82 - E 74 96 40 52 978.3 - -
29/06:00pm -7.2 -24.7 -9.9 81 - E 76 93 41 50 978.4 - -
29/05:30pm -7.0 -24.5 -9.7 81 - E 76 93 41 50 978.5 - -
29/05:18pm -7.2 -24.7 -9.7 82 - E 76 95 41 51 978.7 - -
29/05:00pm -7.2 -24.3 -9.6 83 - E 74 91 40 49 978.5 - -
29/04:35pm -7.0 -24.5 -9.5 82 - E 76 95 41 51 978.6 - -
29/04:30pm -7.1 -24.6 -9.5 83 - E 76 91 41 49 978.2 - -
29/04:09pm -7.1 -24.9 -9.5 83 - E 78 96 42 52 977.8 - -
29/04:00pm -7.2 -25.4 -9.6 83 - E 80 93 43 50 978.0 978.5 -
29/03:30pm -7.1 -24.9 -9.5 83 - E 78 95 42 51 978.0 - -
29/03:03pm -6.8 -23.2 -10.1 77 - E 70 89 38 48 978.2 - -
29/03:00pm -6.7 -23.1 -10.2 76 - E 70 87 38 47 978.7 - -
29/02:54pm -6.9 -24.8 -10.2 77 - E 78 87 42 47 978.3 - -
29/02:45pm -6.5 -20.2 -10.3 74 - ENE 56 74 30 40 979.8 - -
29/02:42pm -6.5 -19.9 -10.7 72 - ENE 54 67 29 36 979.9 - -
29/02:38pm -6.6 -15.5 -11.5 68 - NE 30 48 16 26 980.3 - -
29/02:30pm -5.8 -10.7 -11.9 62 - ESE 9 15 5 8 980.6 - -
29/02:00pm -5.7 -14.2 -12.2 60 - NE 28 46 15 25 980.8 - -
29/01:30pm -8.8 -14.5 -11.8 79 - W 13 15 7 8 980.9 - -
29/01:00pm -8.3 -13.5 -11.3 79 - NW 11 15 6 8 980.7 981.3 -
29/12:30pm -8.1 -13.3 -10.8 81 - NW 11 13 6 7 980.5 - -
29/12:00pm -7.9 -13.4 -10.3 83 - WNW 13 17 7 9 980.4 - -
29/11:30am -7.7 -13.3 -10.7 79 - NW 13 17 7 9 980.1 - -
29/11:00am -7.4 -13.3 -10.6 78 - NNW 15 20 8 11 980.1 - -
29/10:30am -7.6 -13.6 -11.1 76 - WNW 15 19 8 10 980.0 - -
29/10:00am -7.7 -14.5 -11.3 75 - NW 19 24 10 13 979.6 980.2 -
29/09:30am -7.3 -11.9 -12.7 65 - W 7 13 4 7 979.6 - -
29/09:00am -7.4 -11.4 -12.8 65 - E 4 11 2 6 979.7 - -
29/08:30am -6.5 -12.6 -13.2 59 - N 15 24 8 13 979.6 - -
29/08:00am -5.7 -13.2 -13.7 53 - NE 22 33 12 18 979.5 - -
29/07:30am -7.2 -10.9 -13.8 59 - ESE 2 9 1 5 979.7 - -
29/07:00am -7.5 -12.5 -13.5 62 - ENE 9 13 5 7 979.9 980.5 -

Other Formats:

Comma delimited format used in spreadsheet applications
http://www.bom.gov.au/fwo/IDT60803/IDT60803.89611.axf

JavaScript Object Notation format (JSON) in row-major order
http://www.bom.gov.au/fwo/IDT60803/IDT60803.89611.json